Time;durP1;ratioP1;P1;durP2;ratioP2;P2;SDS_P1;SDS_P2;PMS_P1;PMS_P2;Temp;Humidity;BMP_temperature;BMP_pressure;BME280_temperature;BME280_humidity;BME280_pressure;Samples;Min_cycle;Max_cycle;Signal;HPM_P1;HPM_P2
2021/09/28 00:00:05;;;;;;;;;;;;;;;12.73;76.26;100227.38;5012689;28;19925;-73
2021/09/28 00:02:30;;;;;;;;;;;;;;;12.73;76.01;100230.88;5012787;28;19913;-73
2021/09/28 00:04:55;;;;;;;;;;;;;;;12.72;76.48;100233.59;5013223;28;19913;-73
2021/09/28 00:07:20;;;;;;;;;;;;;;;12.67;76.12;100232.06;5012940;28;19996;-73
2021/09/28 00:09:45;;;;;;;;;;;;;;;12.67;76.22;100234.69;5013178;28;19918;-72
2021/09/28 00:12:12;;;;;;;;;;;;;;;12.67;76.38;100234.69;5012873;28;19921;-73
2021/09/28 00:14:38;;;;;;;;;;;;;;;12.70;76.21;100233.69;5013799;28;19913;-73
2021/09/28 00:17:03;;;;;;;;;;;;;;;12.66;76.31;100234.78;5013332;28;20017;-72
2021/09/28 00:19:28;;;;;;;;;;;;;;;12.64;76.79;100237.47;5011462;28;19944;-72
2021/09/28 00:21:53;;;;;;;;;;;;;;;12.67;77.16;100237.34;5012454;28;19917;-73
2021/09/28 00:24:19;;;;;;;;;;;;;;;12.68;76.56;100254.06;5011602;28;19996;-72
2021/09/28 00:26:44;;;;;;;;;;;;;;;12.64;76.60;100245.41;5011730;28;19913;-72
2021/09/28 00:29:09;;;;;;;;;;;;;;;12.63;76.24;100243.72;5012508;28;19920;-72
2021/09/28 00:31:34;;;;;;;;;;;;;;;12.62;76.09;100244.63;5012270;28;20341;-72
2021/09/28 00:34:00;;;;;;;;;;;;;;;12.63;76.14;100248.16;5012956;28;20078;-73
2021/09/28 00:36:25;;;;;;;;;;;;;;;12.60;76.29;100243.88;5012918;28;20389;-72
2021/09/28 00:38:50;;;;;;;;;;;;;;;12.55;76.13;100245.03;5012941;28;19913;-73
2021/09/28 00:41:16;;;;;;;;;;;;;;;12.52;76.96;100248.66;5013149;28;19913;-72
2021/09/28 00:43:47;;;;;;;;;;;;;;;12.50;76.54;100245.25;5013870;28;20396;-73
2021/09/28 00:46:12;;;;;;;;;;;;;;;12.47;76.61;100250.69;5016267;28;19920;-73
2021/09/28 00:48:37;;;;;;;;;;;;;;;12.43;76.86;100250.00;5011041;28;19918;-72
2021/09/28 00:51:03;;;;;;;;;;;;;;;12.43;76.66;100251.78;5011553;28;19924;-72
2021/09/28 00:53:30;;;;;;;;;;;;;;;12.39;77.01;100247.59;5011800;28;20313;-73
2021/09/28 00:55:56;;;;;;;;;;;;;;;12.36;77.11;100248.59;5012270;28;19917;-73
2021/09/28 00:58:21;;;;;;;;;;;;;;;12.33;76.97;100250.50;5013822;28;20004;-73
2021/09/28 01:00:46;;;;;;;;;;;;;;;12.28;76.96;100257.81;4991110;28;19952;-72
2021/09/28 01:03:12;;;;;;;;;;;;;;;12.23;76.65;100260.69;5008411;28;19945;-73
2021/09/28 01:05:37;;;;;;;;;;;;;;;12.20;77.38;100261.69;5012885;28;19917;-72
2021/09/28 01:08:02;;;;;;;;;;;;;;;12.17;77.37;100264.47;4994281;28;19924;-72
2021/09/28 01:10:29;;;;;;;;;;;;;;;12.13;77.37;100257.63;5012608;28;20362;-73
2021/09/28 01:12:54;;;;;;;;;;;;;;;12.10;77.29;100260.41;5010420;28;19944;-74
2021/09/28 01:15:20;;;;;;;;;;;;;;;12.03;77.58;100264.28;5012546;28;19936;-73
2021/09/28 01:17:45;;;;;;;;;;;;;;;12.00;77.54;100267.06;5012416;28;19921;-72
2021/09/28 01:20:11;;;;;;;;;;;;;;;11.99;77.79;100268.03;5011555;28;19951;-73
2021/09/28 01:22:36;;;;;;;;;;;;;;;12.00;77.16;100267.06;5012097;28;19918;-72
2021/09/28 01:25:01;;;;;;;;;;;;;;;12.00;77.37;100264.44;5011981;28;19963;-73
2021/09/28 01:27:27;;;;;;;;;;;;;;;11.96;77.48;100265.50;5012245;28;19964;-71
2021/09/28 01:29:52;;;;;;;;;;;;;;;11.97;77.79;100265.44;5013417;28;19932;-72
2021/09/28 01:32:17;;;;;;;;;;;;;;;11.97;77.38;100265.44;5023762;28;19928;-71
2021/09/28 01:34:43;;;;;;;;;;;;;;;11.95;77.10;100267.28;5017136;28;20385;-72
2021/09/28 01:37:08;;;;;;;;;;;;;;;11.93;77.06;100263.84;5020684;28;19921;-72
2021/09/28 01:39:33;;;;;;;;;;;;;;;11.94;77.14;100268.22;5027817;28;19916;-72
2021/09/28 01:41:59;;;;;;;;;;;;;;;11.96;77.18;100268.13;5037016;28;19920;-72
2021/09/28 01:44:24;;;;;;;;;;;;;;;11.98;77.14;100266.28;5038245;28;20004;-72
2021/09/28 01:46:50;;;;;;;;;;;;;;;12.05;77.28;100267.72;5037339;28;19909;-73
2021/09/28 01:49:16;;;;;;;;;;;;;;;12.07;76.02;100271.16;5033373;28;19913;-72
2021/09/28 01:51:42;;;;;;;;;;;;;;;12.07;76.14;100260.56;5032405;28;20008;-73
2021/09/28 01:54:07;;;;;;;;;;;;;;;12.11;76.49;100261.28;5031101;28;20020;-72
2021/09/28 01:56:33;;;;;;;;;;;;;;;12.09;76.66;100269.28;5031886;28;19913;-72
2021/09/28 01:58:59;;;;;;;;;;;;;;;12.10;75.92;100267.50;5031153;28;20323;-72
2021/09/28 02:01:24;;;;;;;;;;;;;;;12.07;76.28;100280.88;5030072;28;20412;-72
2021/09/28 02:03:50;;;;;;;;;;;;;;;12.06;76.23;100280.00;5031278;28;19920;-71
2021/09/28 02:06:19;;;;;;;;;;;;;;;12.09;76.11;100282.50;5029599;28;19917;-72
2021/09/28 02:08:44;;;;;;;;;;;;;;;12.13;76.24;100276.13;5029611;28;19921;-72
2021/09/28 02:11:10;;;;;;;;;;;;;;;12.16;76.37;100281.28;5030335;28;19917;-72
2021/09/28 02:13:35;;;;;;;;;;;;;;;12.19;75.58;100280.28;5030397;28;19920;-72
2021/09/28 02:16:00;;;;;;;;;;;;;;;12.17;75.29;100279.50;5031176;28;20000;-72
2021/09/28 02:18:26;;;;;;;;;;;;;;;12.21;75.99;100283.72;5031030;28;19913;-72
2021/09/28 02:20:51;;;;;;;;;;;;;;;12.24;75.26;100281.75;5030575;28;19913;-72
2021/09/28 02:23:17;;;;;;;;;;;;;;;12.24;75.13;100283.56;5030820;28;20040;-72
2021/09/28 02:25:42;;;;;;;;;;;;;;;12.19;75.53;100278.50;5031010;28;20422;-72
2021/09/28 02:28:07;;;;;;;;;;;;;;;12.17;75.22;100280.34;5031242;28;20348;-72
2021/09/28 02:30:33;;;;;;;;;;;;;;;12.17;75.81;100280.34;5030677;28;19920;-72
2021/09/28 02:32:58;;;;;;;;;;;;;;;12.15;74.91;100282.19;5028554;28;19956;-72
2021/09/28 02:35:23;;;;;;;;;;;;;;;12.16;75.57;100278.66;5030621;28;20360;-72
2021/09/28 02:37:48;;;;;;;;;;;;;;;12.15;75.50;100278.69;5028948;28;19913;-72
2021/09/28 02:40:14;;;;;;;;;;;;;;;12.15;75.48;100273.41;5030223;28;20420;-73
2021/09/28 02:42:40;;;;;;;;;;;;;;;12.17;75.21;100272.41;5029703;28;19913;-71
2021/09/28 02:45:06;;;;;;;;;;;;;;;12.16;75.07;100273.34;5030508;28;19983;-71
2021/09/28 02:47:31;;;;;;;;;;;;;;;12.13;75.37;100273.47;5030190;28;19945;-71
2021/09/28 02:49:56;;;;;;;;;;;;;;;12.11;74.98;100272.72;5029992;28;20365;-71
2021/09/28 02:52:22;;;;;;;;;;;;;;;12.16;75.38;100269.88;5020791;28;19922;-71
2021/09/28 02:54:47;;;;;;;;;;;;;;;12.16;74.48;100267.22;5010443;28;19917;-72
2021/09/28 02:57:13;;;;;;;;;;;;;;;12.17;74.93;100272.41;5010327;28;20305;-72
2021/09/28 02:59:38;;;;;;;;;;;;;;;12.18;75.06;100276.78;5010576;28;19920;-72
2021/09/28 03:02:03;;;;;;;;;;;;;;;12.18;74.67;100274.16;5009823;28;20263;-72
2021/09/28 03:04:29;;;;;;;;;;;;;;;12.22;74.90;100275.69;5010396;28;20004;-73
2021/09/28 03:06:54;;;;;;;;;;;;;;;12.22;74.26;100273.03;5010455;28;19948;-73
2021/09/28 03:09:19;;;;;;;;;;;;;;;12.25;74.90;100275.53;5010467;28;19914;-72
2021/09/28 03:11:44;;;;;;;;;;;;;;;12.25;73.94;100283.47;5009112;28;19926;-72
2021/09/28 03:14:10;;;;;;;;;;;;;;;12.22;74.37;100275.69;5008602;28;19913;-72
2021/09/28 03:16:35;;;;;;;;;;;;;;;12.21;74.57;100279.28;5009001;28;19913;-73
2021/09/28 03:19:00;;;;;;;;;;;;;;;12.20;74.13;100282.81;5010003;28;20266;-72
2021/09/28 03:21:25;;;;;;;;;;;;;;;12.23;74.75;100284.47;4991332;28;19941;-73
2021/09/28 03:23:51;;;;;;;;;;;;;;;12.23;74.33;100279.19;5009746;28;19913;-72
2021/09/28 03:26:16;;;;;;;;;;;;;;;12.24;74.80;100281.75;5007556;28;19949;-71
2021/09/28 03:28:41;;;;;;;;;;;;;;;12.26;74.22;100281.69;5009475;28;20286;-72
2021/09/28 03:31:06;;;;;;;;;;;;;;;12.28;74.14;100281.59;5009313;28;19971;-73
2021/09/28 03:33:32;;;;;;;;;;;;;;;12.29;73.64;100283.34;4994450;28;19921;-73
2021/09/28 03:35:57;;;;;;;;;;;;;;;12.28;73.86;100295.72;5028206;28;19917;-73
2021/09/28 03:38:22;;;;;;;;;;;;;;;12.28;73.59;100294.81;5029237;28;19967;-73
2021/09/28 03:40:48;;;;;;;;;;;;;;;12.27;74.08;100295.78;5026269;28;19924;-75
2021/09/28 03:43:13;;;;;;;;;;;;;;;12.28;73.44;100289.53;5009176;28;19913;-72
2021/09/28 03:45:38;;;;;;;;;;;;;;;12.28;74.09;100292.19;5010335;28;20001;-73
2021/09/28 03:48:04;;;;;;;;;;;;;;;12.23;73.55;100292.41;5009834;28;19913;-72
2021/09/28 03:50:29;;;;;;;;;;;;;;;12.22;73.49;100290.69;5008397;28;20004;-73
2021/09/28 03:52:55;;;;;;;;;;;;;;;12.16;73.28;100291.84;5009207;28;19917;-73
2021/09/28 03:55:20;;;;;;;;;;;;;;;12.11;73.82;100293.88;5009342;28;20393;-73
2021/09/28 03:57:49;;;;;;;;;;;;;;;12.08;74.12;100288.69;5007792;28;19913;-72
2021/09/28 04:00:16;;;;;;;;;;;;;;;12.06;74.17;100287.94;5013610;28;19953;-72
2021/09/28 04:02:41;;;;;;;;;;;;;;;12.03;74.33;100296.00;5009039;28;19983;-73
2021/09/28 04:05:06;;;;;;;;;;;;;;;12.00;74.05;100296.16;5008489;28;19917;-72
2021/09/28 04:07:32;;;;;;;;;;;;;;;11.99;74.63;100299.72;5007737;28;20008;-72
2021/09/28 04:10:00;;;;;;;;;;;;;;;11.97;74.32;100297.16;5008221;28;20391;-73
2021/09/28 04:12:25;;;;;;;;;;;;;;;11.91;74.40;100302.72;5007184;28;20288;-72
2021/09/28 04:14:51;;;;;;;;;;;;;;;11.88;74.48;100297.56;5009308;28;19920;-73
2021/09/28 04:17:16;;;;;;;;;;;;;;;11.88;75.09;100296.72;5011018;28;20297;-73
2021/09/28 04:19:41;;;;;;;;;;;;;;;11.87;74.64;100301.16;4992409;28;19920;-72
2021/09/28 04:22:07;;;;;;;;;;;;;;;11.89;74.85;100301.06;5007575;28;19917;-73
2021/09/28 04:24:32;;;;;;;;;;;;;;;11.88;74.31;100302.00;4991782;28;19913;-72
2021/09/28 04:26:57;;;;;;;;;;;;;;;11.83;74.24;100303.03;5009465;28;19917;-73
2021/09/28 04:29:22;;;;;;;;;;;;;;;11.87;74.51;100300.31;5009322;28;19957;-71
2021/09/28 04:31:50;;;;;;;;;;;;;;;11.82;74.87;100308.41;5008641;28;19949;-71
2021/09/28 04:34:16;;;;;;;;;;;;;;;11.79;74.92;100301.47;5009007;28;19937;-72
2021/09/28 04:36:41;;;;;;;;;;;;;;;11.82;74.69;100305.75;5001524;28;19971;-72
2021/09/28 04:39:06;;;;;;;;;;;;;;;11.79;74.36;100308.56;5010664;28;20370;-72
2021/09/28 04:41:31;;;;;;;;;;;;;;;11.79;74.71;100308.56;5012019;28;20379;-72
2021/09/28 04:43:57;;;;;;;;;;;;;;;11.81;74.39;100299.63;5012571;28;19999;-72
2021/09/28 04:46:23;;;;;;;;;;;;;;;11.77;74.19;100300.69;5012689;28;20340;-72
2021/09/28 04:48:48;;;;;;;;;;;;;;;11.75;74.75;100309.59;5030177;28;19988;-72
2021/09/28 04:51:13;;;;;;;;;;;;;;;11.73;74.43;100307.03;5031958;28;20041;-71
2021/09/28 04:53:39;;;;;;;;;;;;;;;11.76;74.70;100313.94;5032253;28;19913;-72
2021/09/28 04:56:04;;;;;;;;;;;;;;;11.75;74.57;100309.59;5032297;28;19913;-71
2021/09/28 04:58:29;;;;;;;;;;;;;;;11.75;74.45;100313.09;5031825;28;19919;-72
2021/09/28 05:00:55;;;;;;;;;;;;;;;11.72;74.56;100315.88;5031894;28;19913;-73
2021/09/28 05:03:20;;;;;;;;;;;;;;;11.74;74.54;100307.88;5031761;28;19923;-71
2021/09/28 05:05:45;;;;;;;;;;;;;;;11.73;74.70;100306.16;5031738;28;19924;-72
2021/09/28 05:08:10;;;;;;;;;;;;;;;11.73;74.18;100309.66;5031596;28;19996;-72
2021/09/28 05:10:36;;;;;;;;;;;;;;;11.72;74.59;100313.25;5030236;28;20377;-72
2021/09/28 05:13:02;;;;;;;;;;;;;;;11.72;74.59;100310.59;5031689;28;19913;-72
2021/09/28 05:15:27;;;;;;;;;;;;;;;11.69;74.77;100315.16;5033044;28;19917;-73
2021/09/28 05:17:53;;;;;;;;;;;;;;;11.71;74.79;100308.88;5032028;28;19920;-71
2021/09/28 05:20:18;;;;;;;;;;;;;;;11.74;74.55;100310.50;5031952;28;20324;-72
2021/09/28 05:22:43;;;;;;;;;;;;;;;11.73;74.40;100309.66;5030833;28;19946;-71
2021/09/28 05:25:09;;;;;;;;;;;;;;;11.73;74.36;100306.16;5013866;28;19996;-72
2021/09/28 05:27:34;;;;;;;;;;;;;;;11.73;74.61;100307.03;5031394;28;19967;-72
2021/09/28 05:30:00;;;;;;;;;;;;;;;11.73;74.40;100309.66;5030161;28;19916;-72
2021/09/28 05:32:25;;;;;;;;;;;;;;;11.75;74.40;100312.25;5029820;28;19913;-72
2021/09/28 05:34:50;;;;;;;;;;;;;;;11.75;74.12;100318.38;5031464;28;20292;-72
2021/09/28 05:37:15;;;;;;;;;;;;;;;11.74;74.65;100319.31;5030076;28;19913;-72
2021/09/28 05:39:41;;;;;;;;;;;;;;;11.75;74.64;100318.38;5031201;28;19920;-72
2021/09/28 05:42:06;;;;;;;;;;;;;;;11.76;73.95;100319.22;5027616;28;19944;-72
2021/09/28 05:44:31;;;;;;;;;;;;;;;11.77;74.79;100323.59;5030981;28;19955;-72
2021/09/28 05:46:57;;;;;;;;;;;;;;;11.74;74.25;100321.06;5031555;28;19917;-72
2021/09/28 05:49:22;;;;;;;;;;;;;;;11.72;74.49;100329.09;5030312;28;19948;-72
2021/09/28 05:51:53;;;;;;;;;;;;;;;11.72;74.46;100326.44;5033808;28;19928;-70
2021/09/28 05:54:19;;;;;;;;;;;;;;;11.74;74.31;100324.59;5035273;28;20007;-72
2021/09/28 05:56:48;;;;;;;;;;;;;;;11.75;73.85;100326.31;5033109;28;19917;-71
2021/09/28 05:59:13;;;;;;;;;;;;;;;11.73;74.11;100332.59;5031050;28;19913;-72
2021/09/28 06:01:38;;;;;;;;;;;;;;;11.72;74.40;100331.72;5013426;28;20291;-73
2021/09/28 06:04:04;;;;;;;;;;;;;;;11.72;73.91;100330.88;5031325;28;19920;-72
2021/09/28 06:06:30;;;;;;;;;;;;;;;11.73;74.13;100329.94;5030504;28;19925;-73
2021/09/28 06:08:56;;;;;;;;;;;;;;;11.73;74.36;100330.78;5030896;28;19913;-73
2021/09/28 06:11:22;;;;;;;;;;;;;;;11.76;74.33;100338.59;5028902;28;20578;-72
2021/09/28 06:13:47;;;;;;;;;;;;;;;11.76;74.12;100333.31;5030748;28;19924;-72
2021/09/28 06:16:12;;;;;;;;;;;;;;;11.76;73.83;100328.03;5030747;28;19917;-72
2021/09/28 06:18:37;;;;;;;;;;;;;;;11.76;73.69;100328.03;5013315;28;19924;-71
2021/09/28 06:21:03;;;;;;;;;;;;;;;11.80;73.89;100328.75;5030506;28;19963;-72
2021/09/28 06:23:28;;;;;;;;;;;;;;;11.81;73.48;100327.81;5030918;28;19994;-72
2021/09/28 06:25:53;;;;;;;;;;;;;;;11.81;74.05;100325.16;5030529;28;20285;-73
2021/09/28 06:28:19;;;;;;;;;;;;;;;11.85;74.12;100328.53;5030846;28;19919;-72
2021/09/28 06:30:44;;;;;;;;;;;;;;;11.88;73.10;100334.56;5030562;28;19970;-72
2021/09/28 06:33:10;;;;;;;;;;;;;;;11.93;73.71;100326.41;5030107;28;20353;-73
2021/09/28 06:35:35;;;;;;;;;;;;;;;11.97;73.04;100330.66;5031135;28;19913;-72
2021/09/28 06:38:03;;;;;;;;;;;;;;;12.02;72.94;100326.84;5028429;28;20003;-72
2021/09/28 06:40:29;;;;;;;;;;;;;;;12.08;73.41;100332.78;5030659;28;20266;-72
2021/09/28 06:42:54;;;;;;;;;;;;;;;12.13;72.67;100328.97;5029914;28;19999;-72
2021/09/28 06:45:20;;;;;;;;;;;;;;;12.18;72.70;100332.28;5029147;28;19913;-72
2021/09/28 06:47:46;;;;;;;;;;;;;;;12.30;72.03;100324.69;5031653;28;20269;-72
2021/09/28 06:50:11;;;;;;;;;;;;;;;12.37;72.01;100323.47;5035184;28;19924;-73
2021/09/28 06:52:37;;;;;;;;;;;;;;;12.44;71.51;100322.25;5036464;28;19955;-72
2021/09/28 06:55:03;;;;;;;;;;;;;;;12.50;71.10;100319.28;5035967;28;19917;-71
2021/09/28 06:57:28;;;;;;;;;;;;;;;12.61;71.73;100319.63;5028722;28;19992;-71
2021/09/28 06:59:54;;;;;;;;;;;;;;;12.66;70.41;100320.25;5033519;28;19955;-73
2021/09/28 07:02:19;;;;;;;;;;;;;;;12.76;70.30;100335.69;5030940;28;19960;-75
2021/09/28 07:04:44;;;;;;;;;;;;;;;12.83;70.22;100334.47;5030666;28;19916;-73
2021/09/28 07:07:09;;;;;;;;;;;;;;;12.87;69.90;100330.72;5031057;28;19921;-73
2021/09/28 07:09:35;;;;;;;;;;;;;;;12.92;70.19;100334.00;5032183;28;19917;-73
2021/09/28 07:12:00;;;;;;;;;;;;;;;12.94;69.33;100332.13;5029393;28;19925;-73
2021/09/28 07:14:25;;;;;;;;;;;;;;;13.01;69.70;100328.22;5030516;28;19948;-73
2021/09/28 07:16:51;;;;;;;;;;;;;;;13.04;69.53;100330.75;5029951;28;19913;-71
2021/09/28 07:19:16;;;;;;;;;;;;;;;13.09;69.92;100330.47;5028574;28;19913;-71
2021/09/28 07:21:41;;;;;;;;;;;;;;;13.17;69.62;100338.03;5027519;28;19920;-71
2021/09/28 07:24:06;;;;;;;;;;;;;;;13.21;69.22;100336.94;5030077;28;20354;-73
2021/09/28 07:26:32;;;;;;;;;;;;;;;13.28;69.33;100341.03;5027661;28;19925;-72
2021/09/28 07:28:57;;;;;;;;;;;;;;;13.32;69.20;100342.59;5019872;28;20739;-71
2021/09/28 07:31:22;;;;;;;;;;;;;;;13.35;68.87;100347.72;5027160;28;19924;-72
2021/09/28 07:33:47;;;;;;;;;;;;;;;13.38;69.44;100341.41;5027997;28;20351;-72
2021/09/28 07:36:15;;;;;;;;;;;;;;;13.43;69.00;100345.53;5029966;28;19948;-73
2021/09/28 07:38:43;;;;;;;;;;;;;;;13.49;69.32;100353.16;5030375;28;20341;-73
2021/09/28 07:41:08;;;;;;;;;;;;;;;13.56;68.95;100352.81;5031558;28;19956;-72
2021/09/28 07:43:33;;;;;;;;;;;;;;;13.62;68.58;100352.53;5030098;28;19956;-73
2021/09/28 07:46:00;;;;;;;;;;;;;;;13.70;68.52;100350.31;5019996;28;19913;-72
2021/09/28 07:48:26;;;;;;;;;;;;;;;13.78;67.38;100352.56;5012292;28;19920;-72
2021/09/28 07:50:51;;;;;;;;;;;;;;;13.87;67.44;100355.56;5008144;28;19921;-73
2021/09/28 07:53:16;;;;;;;;;;;;;;;13.96;67.36;100355.06;5009177;28;19921;-73
2021/09/28 07:55:42;;;;;;;;;;;;;;;14.11;67.03;100353.38;5009950;28;19914;-73
2021/09/28 07:58:07;;;;;;;;;;;;;;;14.27;66.56;100360.50;5010124;28;19979;-73
2021/09/28 08:00:42;;;;;;;;;;;;;;;14.39;65.95;100354.50;5012893;28;19913;-73
2021/09/28 08:03:09;;;;;;;;;;;;;;;14.60;64.72;100361.28;5009144;28;19956;-73
2021/09/28 08:05:34;;;;;;;;;;;;;;;15.00;63.94;100353.69;5009862;28;19919;-73
2021/09/28 08:08:00;;;;;;;;;;;;;;;15.29;62.85;100359.09;5009330;28;20008;-72
2021/09/28 08:10:29;;;;;;;;;;;;;;;15.60;61.93;100358.09;5010830;28;20531;-73
2021/09/28 08:12:59;;;;;;;;;;;;;;;15.90;61.09;100354.53;5011957;28;19913;-72
2021/09/28 08:15:25;;;;;;;;;;;;;;;16.01;59.76;100351.19;5015332;28;20369;-73
2021/09/28 08:17:51;;;;;;;;;;;;;;;16.13;59.93;100353.06;4988204;28;19920;-72
2021/09/28 08:20:19;;;;;;;;;;;;;;;16.09;59.54;100348.88;4996529;28;19914;-72
2021/09/28 08:22:44;;;;;;;;;;;;;;;16.12;59.37;100354.03;5005675;28;19924;-73
2021/09/28 08:25:12;;;;;;;;;;;;;;;16.14;59.43;100344.13;5017836;28;19913;-74
2021/09/28 08:30:22;;;;;;;;;;;;;;;16.24;59.28;100339.09;5015302;28;19996;-73
2021/09/28 08:32:47;;;;;;;;;;;;;;;16.31;58.93;100338.59;5013189;28;19948;-72
2021/09/28 08:35:12;;;;;;;;;;;;;;;16.45;58.94;100339.53;5011700;28;19920;-73
2021/09/28 08:37:37;;;;;;;;;;;;;;;16.63;57.93;100335.63;5012436;28;19914;-73
2021/09/28 08:40:03;;;;;;;;;;;;;;;16.63;58.59;100337.47;5013229;28;19921;-73
2021/09/28 08:42:29;;;;;;;;;;;;;;;16.68;57.58;100343.34;5011959;28;20281;-72
2021/09/28 08:44:54;;;;;;;;;;;;;;;16.92;57.51;100344.41;5013383;28;20300;-73
2021/09/28 08:47:40;;;;;;;;;;;;;;;17.31;56.85;100331.16;5013574;28;19913;-73
2021/09/28 08:50:07;;;;;;;;;;;;;;;17.60;55.64;100330.00;5013236;28;19944;-72
2021/09/28 08:52:37;;;;;;;;;;;;;;;17.76;55.50;100324.44;5012921;28;19913;-73
2021/09/28 08:55:02;;;;;;;;;;;;;;;17.81;54.73;100327.66;5019032;28;19975;-73
2021/09/28 08:57:27;;;;;;;;;;;;;;;17.94;55.03;100327.66;5012750;28;20289;-72
2021/09/28 08:59:54;;;;;;;;;;;;;;;18.23;54.19;100319.34;5012151;28;19919;-73
2021/09/28 09:02:19;;;;;;;;;;;;;;;18.45;53.02;100323.97;4996048;28;19921;-73
2021/09/28 09:05:01;;;;;;;;;;;;;;;18.85;52.17;100311.22;5015004;28;19909;-74
2021/09/28 09:07:26;;;;;;;;;;;;;;;19.18;50.76;100319.47;5012990;28;19976;-72
2021/09/28 09:09:51;;;;;;;;;;;;;;;19.50;49.95;100319.66;5011673;28;19918;-72
2021/09/28 09:12:30;;;;;;;;;;;;;;;19.74;49.58;100316.91;5011779;28;19925;-72
2021/09/28 09:15:15;;;;;;;;;;;;;;;20.06;48.12;100318.81;5012595;28;19917;-71
2021/09/28 09:17:40;;;;;;;;;;;;;;;20.19;48.14;100318.69;5012714;28;19913;-72
2021/09/28 09:20:25;;;;;;;;;;;;;;;20.46;46.74;100319.13;5013238;28;19913;-72
2021/09/28 09:22:50;;;;;;;;;;;;;;;20.81;45.66;100318.06;5011896;28;19923;-71
2021/09/28 09:25:20;;;;;;;;;;;;;;;20.85;45.53;100315.97;5011521;28;20004;-73
2021/09/28 09:27:45;;;;;;;;;;;;;;;21.01;44.65;100309.19;5010573;28;19917;-73
2021/09/28 09:30:21;;;;;;;;;;;;;;;21.09;43.99;100318.41;5012215;28;19918;-72
2021/09/28 09:32:47;;;;;;;;;;;;;;;21.03;44.31;100317.09;5014787;28;19920;-72
2021/09/28 09:35:23;;;;;;;;;;;;;;;21.17;44.78;100315.94;5014120;28;20318;-73
2021/09/28 09:37:48;;;;;;;;;;;;;;;21.33;43.93;100312.78;5013621;28;19913;-72
2021/09/28 09:40:29;;;;;;;;;;;;;;;21.29;44.13;100309.53;5012889;28;19918;-72
2021/09/28 09:42:54;;;;;;;;;;;;;;;21.51;42.89;100305.88;5021036;28;19945;-72
2021/09/28 09:45:23;;;;;;;;;;;;;;;21.50;42.58;100306.84;5034345;28;19920;-70
2021/09/28 09:47:49;;;;;;;;;;;;;;;21.61;41.82;100308.59;5032129;28;19917;-73
2021/09/28 09:50:16;;;;;;;;;;;;;;;21.53;42.63;100308.41;5033765;28;20004;-71
2021/09/28 09:53:03;;;;;;;;;;;;;;;21.38;43.13;100308.72;5032510;28;20015;-72
2021/09/28 09:55:30;;;;;;;;;;;;;;;21.35;43.23;100300.09;5023560;28;19921;-73
2021/09/28 09:57:55;;;;;;;;;;;;;;;21.04;42.10;100299.19;5011323;28;19921;-73
2021/09/28 10:00:21;;;;;;;;;;;;;;;20.97;42.59;100294.34;5012749;28;19913;-73
2021/09/28 10:02:46;;;;;;;;;;;;;;;21.19;41.74;100290.69;5009700;28;20011;-73
2021/09/28 10:05:12;;;;;;;;;;;;;;;21.34;41.48;100296.56;5010490;28;19913;-72
2021/09/28 10:07:37;;;;;;;;;;;;;;;21.41;41.85;100297.78;5005803;28;19998;-74
2021/09/28 10:10:03;;;;;;;;;;;;;;;21.35;41.46;100292.06;5018528;28;19920;-73
2021/09/28 10:12:35;;;;;;;;;;;;;;;21.51;41.72;100300.50;5024971;28;19917;-73
2021/09/28 10:15:07;;;;;;;;;;;;;;;21.44;40.94;100281.41;5005692;28;19924;-73
2021/09/28 10:17:39;;;;;;;;;;;;;;;21.23;41.21;100292.09;5010571;28;20030;-73
2021/09/28 10:20:06;;;;;;;;;;;;;;;21.16;40.55;100284.72;5025743;28;19917;-73
2021/09/28 10:22:52;;;;;;;;;;;;;;;21.16;40.56;100277.53;5017442;28;20458;-71
2021/09/28 10:25:23;;;;;;;;;;;;;;;21.18;40.73;100275.56;5030717;28;19917;-74
2021/09/28 10:27:51;;;;;;;;;;;;;;;21.31;40.50;100271.81;5029232;28;19920;-72
2021/09/28 10:30:35;;;;;;;;;;;;;;;21.17;40.09;100270.34;5015619;28;19917;-74
2021/09/28 10:33:27;;;;;;;;;;;;;;;21.08;41.12;100269.31;5009613;28;20289;-73
2021/09/28 10:35:59;;;;;;;;;;;;;;;20.89;40.31;100263.81;5009976;28;19925;-73
2021/09/28 10:38:45;;;;;;;;;;;;;;;20.64;41.52;100255.16;5010612;28;19944;-72
2021/09/28 10:41:28;;;;;;;;;;;;;;;20.66;41.71;100250.53;5008311;28;20394;-73
2021/09/28 10:43:54;;;;;;;;;;;;;;;20.67;41.55;100256.72;5011470;28;19913;-72
2021/09/28 10:46:37;;;;;;;;;;;;;;;20.65;40.97;100248.84;5010340;28;20431;-72
2021/09/28 10:49:21;;;;;;;;;;;;;;;20.61;41.63;100246.53;5010353;28;19972;-72
2021/09/28 10:51:46;;;;;;;;;;;;;;;20.50;41.25;100239.34;5007023;28;19921;-73
2021/09/28 10:54:11;;;;;;;;;;;;;;;20.44;41.54;100240.72;5011053;28;19920;-71
2021/09/28 10:56:49;;;;;;;;;;;;;;;20.34;41.53;100240.63;5012315;28;19999;-72
2021/09/28 10:59:14;;;;;;;;;;;;;;;20.31;40.19;100240.91;5048300;28;20435;-72
2021/09/28 11:01:39;;;;;;;;;;;;;;;20.23;42.75;100240.69;5048995;28;19991;-73
2021/09/28 11:04:14;;;;;;;;;;;;;;;20.11;43.32;100247.03;5043574;28;19917;-73
2021/09/28 11:06:45;;;;;;;;;;;;;;;19.99;43.21;100238.19;5049785;28;19923;-73
2021/09/28 11:09:11;;;;;;;;;;;;;;;19.94;42.92;100233.19;5049849;28;19970;-72
2021/09/28 11:11:37;;;;;;;;;;;;;;;19.84;42.22;100244.78;5047925;28;19916;-73
2021/09/28 11:14:03;;;;;;;;;;;;;;;19.89;42.76;100235.41;5049873;28;20544;-73
2021/09/28 11:16:29;;;;;;;;;;;;;;;19.97;42.36;100233.94;5049698;28;19970;-73
2021/09/28 11:18:56;;;;;;;;;;;;;;;19.90;42.79;100228.22;5049909;28;19913;-72
2021/09/28 11:21:21;;;;;;;;;;;;;;;19.68;42.65;100226.41;5049534;28;19919;-71
2021/09/28 11:23:50;;;;;;;;;;;;;;;19.63;43.03;100218.72;5051354;28;19916;-73
2021/09/28 11:26:17;;;;;;;;;;;;;;;19.64;41.43;100217.78;5051630;28;19912;-73
2021/09/28 11:28:47;;;;;;;;;;;;;;;19.63;41.94;100212.53;5049685;28;19912;-72
2021/09/28 11:31:13;;;;;;;;;;;;;;;19.63;41.00;100218.72;5048909;28;20003;-73
2021/09/28 11:33:40;;;;;;;;;;;;;;;19.57;42.04;100210.38;5049321;28;20102;-72
2021/09/28 11:36:08;;;;;;;;;;;;;;;19.52;42.88;100208.91;5048975;28;19951;-73
2021/09/28 11:38:35;;;;;;;;;;;;;;;19.38;44.47;100194.94;5047669;28;19956;-73
2021/09/28 11:41:04;;;;;;;;;;;;;;;19.44;43.37;100197.97;5048550;28;19913;-73
2021/09/28 11:43:30;;;;;;;;;;;;;;;19.44;43.16;100194.44;5047054;28;19920;-73
2021/09/28 11:46:06;;;;;;;;;;;;;;;19.45;43.59;100191.66;5047963;28;19913;-73
2021/09/28 11:48:39;;;;;;;;;;;;;;;19.52;43.29;100190.19;5046836;28;19913;-74
2021/09/28 11:51:08;;;;;;;;;;;;;;;19.55;42.50;100193.59;5048342;28;19924;-72
2021/09/28 11:53:40;;;;;;;;;;;;;;;19.56;42.89;100190.78;5036446;28;20377;-72
2021/09/28 11:56:06;;;;;;;;;;;;;;;19.56;42.18;100184.56;5029233;28;19948;-72
2021/09/28 11:58:34;;;;;;;;;;;;;;;19.57;42.50;100186.31;5011203;28;19952;-72
2021/09/28 12:01:00;;;;;;;;;;;;;;;19.62;42.27;100182.28;5026557;28;19913;-73
2021/09/28 12:03:26;;;;;;;;;;;;;;;19.67;43.09;100176.56;5028612;28;19960;-72
2021/09/28 12:08:21;;;;;;;;;;;;;;;19.70;40.99;100169.16;5027771;28;19928;-74
2021/09/28 12:10:46;;;;;;;;;;;;;;;19.63;41.18;100164.38;5029102;28;19921;-72
2021/09/28 12:13:16;;;;;;;;;;;;;;;19.64;42.12;100163.41;5028387;28;19920;-73
2021/09/28 12:16:00;;;;;;;;;;;;;;;19.60;42.62;100167.31;5024014;28;19913;-73
2021/09/28 12:18:25;;;;;;;;;;;;;;;19.61;42.59;100155.63;5009352;28;19917;-73
2021/09/28 12:20:50;;;;;;;;;;;;;;;19.60;41.85;100152.13;5010890;28;19948;-73
2021/09/28 12:23:15;;;;;;;;;;;;;;;19.62;41.44;100147.50;4994613;28;19913;-73
2021/09/28 12:25:43;;;;;;;;;;;;;;;19.68;42.31;100151.53;5014974;28;19920;-73
2021/09/28 12:28:13;;;;;;;;;;;;;;;19.66;41.47;100146.25;5023836;28;19913;-72
2021/09/28 12:30:51;;;;;;;;;;;;;;;19.67;42.74;100147.13;5011299;28;20370;-73
2021/09/28 12:33:17;;;;;;;;;;;;;;;19.71;43.31;100141.44;5010693;28;19960;-73
2021/09/28 12:35:42;;;;;;;;;;;;;;;19.72;43.59;100144.97;5010063;28;19917;-72
2021/09/28 12:38:09;;;;;;;;;;;;;;;19.67;43.47;100147.13;5009359;28;19913;-72